sensor_id;sensor_type;location;lat;lon;timestamp;P1;durP1;ratioP1;P2;durP2;ratioP2
15603;SDS011;7902;49.042;9.092;2023-04-24T00:00:17;17.97;;;0.80;;
15603;SDS011;7902;49.042;9.092;2023-04-24T00:02:43;9.57;;;0.70;;
15603;SDS011;7902;49.042;9.092;2023-04-24T00:05:16;11.00;;;1.17;;
15603;SDS011;7902;49.042;9.092;2023-04-24T00:07:43;8.97;;;0.60;;
15603;SDS011;7902;49.042;9.092;2023-04-24T00:10:10;9.93;;;0.77;;
15603;SDS011;7902;49.042;9.092;2023-04-24T00:12:37;9.40;;;0.80;;
15603;SDS011;7902;49.042;9.092;2023-04-24T00:15:04;9.87;;;1.33;;
15603;SDS011;7902;49.042;9.092;2023-04-24T00:17:31;10.73;;;1.40;;
15603;SDS011;7902;49.042;9.092;2023-04-24T00:19:57;12.80;;;1.90;;
15603;SDS011;7902;49.042;9.092;2023-04-24T00:22:27;9.77;;;0.90;;
15603;SDS011;7902;49.042;9.092;2023-04-24T00:24:53;8.90;;;0.60;;
15603;SDS011;7902;49.042;9.092;2023-04-24T00:27:20;11.30;;;0.83;;
15603;SDS011;7902;49.042;9.092;2023-04-24T00:29:46;11.90;;;0.70;;
15603;SDS011;7902;49.042;9.092;2023-04-24T00:32:12;10.67;;;0.83;;
15603;SDS011;7902;49.042;9.092;2023-04-24T00:34:39;10.13;;;0.80;;
15603;SDS011;7902;49.042;9.092;2023-04-24T00:37:06;9.83;;;0.90;;
15603;SDS011;7902;49.042;9.092;2023-04-24T00:39:32;9.77;;;0.90;;
15603;SDS011;7902;49.042;9.092;2023-04-24T00:41:58;12.87;;;0.80;;
15603;SDS011;7902;49.042;9.092;2023-04-24T00:44:24;22.10;;;1.30;;
15603;SDS011;7902;49.042;9.092;2023-04-24T00:46:50;10.60;;;0.97;;
15603;SDS011;7902;49.042;9.092;2023-04-24T00:49:20;9.50;;;0.80;;
15603;SDS011;7902;49.042;9.092;2023-04-24T00:51:47;12.03;;;1.87;;
15603;SDS011;7902;49.042;9.092;2023-04-24T00:54:14;11.13;;;1.33;;
15603;SDS011;7902;49.042;9.092;2023-04-24T00:56:42;11.27;;;1.40;;
15603;SDS011;7902;49.042;9.092;2023-04-24T00:59:09;9.10;;;0.70;;
15603;SDS011;7902;49.042;9.092;2023-04-24T01:01:35;9.20;;;0.77;;
15603;SDS011;7902;49.042;9.092;2023-04-24T01:04:01;10.60;;;0.80;;
15603;SDS011;7902;49.042;9.092;2023-04-24T01:06:28;9.60;;;0.70;;
15603;SDS011;7902;49.042;9.092;2023-04-24T01:08:57;11.07;;;0.80;;
15603;SDS011;7902;49.042;9.092;2023-04-24T01:11:24;9.70;;;0.80;;
15603;SDS011;7902;49.042;9.092;2023-04-24T01:13:51;9.53;;;0.90;;
15603;SDS011;7902;49.042;9.092;2023-04-24T01:16:18;13.00;;;1.07;;
15603;SDS011;7902;49.042;9.092;2023-04-24T01:18:46;9.67;;;0.73;;
15603;SDS011;7902;49.042;9.092;2023-04-24T01:21:13;9.20;;;0.70;;
15603;SDS011;7902;49.042;9.092;2023-04-24T01:23:43;9.47;;;0.83;;
15603;SDS011;7902;49.042;9.092;2023-04-24T01:26:13;10.97;;;0.90;;
15603;SDS011;7902;49.042;9.092;2023-04-24T01:28:42;15.90;;;1.10;;
15603;SDS011;7902;49.042;9.092;2023-04-24T01:31:08;9.60;;;0.80;;
15603;SDS011;7902;49.042;9.092;2023-04-24T01:33:34;10.20;;;1.10;;
15603;SDS011;7902;49.042;9.092;2023-04-24T01:36:00;9.03;;;0.70;;
15603;SDS011;7902;49.042;9.092;2023-04-24T01:38:27;9.63;;;0.80;;
15603;SDS011;7902;49.042;9.092;2023-04-24T01:40:53;10.30;;;1.10;;
15603;SDS011;7902;49.042;9.092;2023-04-24T01:43:19;9.00;;;0.80;;
15603;SDS011;7902;49.042;9.092;2023-04-24T01:45:45;13.33;;;2.20;;
15603;SDS011;7902;49.042;9.092;2023-04-24T01:48:11;9.90;;;1.20;;
15603;SDS011;7902;49.042;9.092;2023-04-24T01:50:38;10.77;;;1.30;;
15603;SDS011;7902;49.042;9.092;2023-04-24T01:53:04;10.00;;;0.97;;
15603;SDS011;7902;49.042;9.092;2023-04-24T01:55:30;10.00;;;0.90;;
15603;SDS011;7902;49.042;9.092;2023-04-24T01:57:56;13.47;;;1.07;;
15603;SDS011;7902;49.042;9.092;2023-04-24T02:00:25;12.23;;;0.90;;
15603;SDS011;7902;49.042;9.092;2023-04-24T02:02:51;10.07;;;1.10;;
15603;SDS011;7902;49.042;9.092;2023-04-24T02:05:17;12.10;;;1.03;;
15603;SDS011;7902;49.042;9.092;2023-04-24T02:07:43;10.90;;;0.70;;
15603;SDS011;7902;49.042;9.092;2023-04-24T02:10:09;12.83;;;1.00;;
15603;SDS011;7902;49.042;9.092;2023-04-24T02:12:36;11.33;;;1.00;;
15603;SDS011;7902;49.042;9.092;2023-04-24T02:15:02;11.77;;;0.90;;
15603;SDS011;7902;49.042;9.092;2023-04-24T02:17:28;13.23;;;0.87;;
15603;SDS011;7902;49.042;9.092;2023-04-24T02:19:54;12.57;;;2.30;;
15603;SDS011;7902;49.042;9.092;2023-04-24T02:22:20;9.17;;;0.87;;
15603;SDS011;7902;49.042;9.092;2023-04-24T02:24:46;14.47;;;0.97;;
15603;SDS011;7902;49.042;9.092;2023-04-24T02:27:12;10.67;;;0.73;;
15603;SDS011;7902;49.042;9.092;2023-04-24T02:29:38;9.00;;;0.70;;
15603;SDS011;7902;49.042;9.092;2023-04-24T02:32:04;9.03;;;0.80;;
15603;SDS011;7902;49.042;9.092;2023-04-24T02:34:30;13.40;;;1.20;;
15603;SDS011;7902;49.042;9.092;2023-04-24T02:36:56;12.97;;;1.00;;
15603;SDS011;7902;49.042;9.092;2023-04-24T02:39:21;10.63;;;1.10;;
15603;SDS011;7902;49.042;9.092;2023-04-24T02:41:47;10.33;;;0.80;;
15603;SDS011;7902;49.042;9.092;2023-04-24T02:44:13;10.97;;;0.73;;
15603;SDS011;7902;49.042;9.092;2023-04-24T02:46:39;8.80;;;0.80;;
15603;SDS011;7902;49.042;9.092;2023-04-24T02:49:07;15.33;;;1.03;;
15603;SDS011;7902;49.042;9.092;2023-04-24T02:51:33;10.17;;;0.80;;
15603;SDS011;7902;49.042;9.092;2023-04-24T02:53:59;9.60;;;0.77;;
15603;SDS011;7902;49.042;9.092;2023-04-24T02:56:25;9.37;;;0.63;;
15603;SDS011;7902;49.042;9.092;2023-04-24T02:58:51;11.47;;;0.80;;
15603;SDS011;7902;49.042;9.092;2023-04-24T03:01:17;9.60;;;0.73;;
15603;SDS011;7902;49.042;9.092;2023-04-24T03:03:43;10.60;;;1.00;;
15603;SDS011;7902;49.042;9.092;2023-04-24T03:06:09;12.57;;;0.90;;
15603;SDS011;7902;49.042;9.092;2023-04-24T03:08:35;9.80;;;1.00;;
15603;SDS011;7902;49.042;9.092;2023-04-24T03:11:01;10.00;;;0.90;;
15603;SDS011;7902;49.042;9.092;2023-04-24T03:13:27;9.87;;;0.70;;
15603;SDS011;7902;49.042;9.092;2023-04-24T03:15:53;10.20;;;0.70;;
15603;SDS011;7902;49.042;9.092;2023-04-24T03:18:19;15.13;;;0.80;;
15603;SDS011;7902;49.042;9.092;2023-04-24T03:20:45;10.00;;;0.80;;
15603;SDS011;7902;49.042;9.092;2023-04-24T03:23:12;12.93;;;1.00;;
15603;SDS011;7902;49.042;9.092;2023-04-24T03:25:38;8.90;;;0.70;;
15603;SDS011;7902;49.042;9.092;2023-04-24T03:28:04;12.73;;;0.90;;
15603;SDS011;7902;49.042;9.092;2023-04-24T03:30:30;9.70;;;0.80;;
15603;SDS011;7902;49.042;9.092;2023-04-24T03:32:56;9.93;;;0.90;;
15603;SDS011;7902;49.042;9.092;2023-04-24T03:35:22;9.43;;;0.90;;
15603;SDS011;7902;49.042;9.092;2023-04-24T03:37:48;9.50;;;0.80;;
15603;SDS011;7902;49.042;9.092;2023-04-24T03:40:14;8.60;;;0.80;;
15603;SDS011;7902;49.042;9.092;2023-04-24T03:42:40;8.80;;;0.83;;
15603;SDS011;7902;49.042;9.092;2023-04-24T03:45:06;10.00;;;1.20;;
15603;SDS011;7902;49.042;9.092;2023-04-24T03:47:32;9.67;;;0.70;;
15603;SDS011;7902;49.042;9.092;2023-04-24T03:49:58;9.47;;;0.73;;
15603;SDS011;7902;49.042;9.092;2023-04-24T03:52:24;13.90;;;2.60;;
15603;SDS011;7902;49.042;9.092;2023-04-24T03:54:50;11.13;;;0.90;;
15603;SDS011;7902;49.042;9.092;2023-04-24T03:57:16;9.23;;;1.07;;
15603;SDS011;7902;49.042;9.092;2023-04-24T03:59:41;13.80;;;1.50;;
15603;SDS011;7902;49.042;9.092;2023-04-24T04:02:07;9.50;;;1.30;;
15603;SDS011;7902;49.042;9.092;2023-04-24T04:04:33;12.83;;;1.80;;
15603;SDS011;7902;49.042;9.092;2023-04-24T04:06:59;12.20;;;1.50;;
15603;SDS011;7902;49.042;9.092;2023-04-24T04:09:28;13.40;;;1.77;;
15603;SDS011;7902;49.042;9.092;2023-04-24T04:11:54;8.80;;;1.33;;
15603;SDS011;7902;49.042;9.092;2023-04-24T04:14:21;9.07;;;1.17;;
15603;SDS011;7902;49.042;9.092;2023-04-24T04:16:47;9.80;;;1.03;;
15603;SDS011;7902;49.042;9.092;2023-04-24T04:19:13;11.30;;;1.30;;
15603;SDS011;7902;49.042;9.092;2023-04-24T04:21:39;9.40;;;1.23;;
15603;SDS011;7902;49.042;9.092;2023-04-24T04:24:05;8.37;;;1.10;;
15603;SDS011;7902;49.042;9.092;2023-04-24T04:26:32;9.40;;;1.20;;
15603;SDS011;7902;49.042;9.092;2023-04-24T04:28:59;8.60;;;0.97;;
15603;SDS011;7902;49.042;9.092;2023-04-24T04:31:26;15.63;;;1.13;;
15603;SDS011;7902;49.042;9.092;2023-04-24T04:33:52;10.77;;;1.00;;
15603;SDS011;7902;49.042;9.092;2023-04-24T04:36:17;11.70;;;1.17;;
15603;SDS011;7902;49.042;9.092;2023-04-24T04:38:44;9.50;;;1.10;;
15603;SDS011;7902;49.042;9.092;2023-04-24T04:41:10;8.20;;;0.90;;
15603;SDS011;7902;49.042;9.092;2023-04-24T04:43:36;9.73;;;1.30;;
15603;SDS011;7902;49.042;9.092;2023-04-24T04:46:03;8.30;;;0.90;;
15603;SDS011;7902;49.042;9.092;2023-04-24T04:48:29;8.27;;;0.80;;
15603;SDS011;7902;49.042;9.092;2023-04-24T04:50:57;11.60;;;2.30;;
15603;SDS011;7902;49.042;9.092;2023-04-24T04:53:23;11.90;;;1.70;;
15603;SDS011;7902;49.042;9.092;2023-04-24T04:55:49;10.73;;;0.90;;
15603;SDS011;7902;49.042;9.092;2023-04-24T04:58:15;8.00;;;0.80;;
15603;SDS011;7902;49.042;9.092;2023-04-24T05:00:41;11.80;;;1.10;;
15603;SDS011;7902;49.042;9.092;2023-04-24T05:03:07;8.50;;;0.90;;
15603;SDS011;7902;49.042;9.092;2023-04-24T05:05:33;8.07;;;0.80;;
15603;SDS011;7902;49.042;9.092;2023-04-24T05:07:58;10.50;;;1.00;;
15603;SDS011;7902;49.042;9.092;2023-04-24T05:10:24;8.30;;;0.70;;
15603;SDS011;7902;49.042;9.092;2023-04-24T05:12:50;9.40;;;1.07;;
15603;SDS011;7902;49.042;9.092;2023-04-24T05:15:16;9.43;;;1.10;;
15603;SDS011;7902;49.042;9.092;2023-04-24T05:17:42;8.90;;;0.90;;
15603;SDS011;7902;49.042;9.092;2023-04-24T05:20:08;9.07;;;1.10;;
15603;SDS011;7902;49.042;9.092;2023-04-24T05:22:35;12.87;;;1.10;;
15603;SDS011;7902;49.042;9.092;2023-04-24T05:25:01;10.10;;;1.10;;
15603;SDS011;7902;49.042;9.092;2023-04-24T05:27:28;9.80;;;1.20;;
15603;SDS011;7902;49.042;9.092;2023-04-24T05:29:54;8.50;;;1.10;;
15603;SDS011;7902;49.042;9.092;2023-04-24T05:32:20;9.23;;;1.20;;
15603;SDS011;7902;49.042;9.092;2023-04-24T05:34:46;13.30;;;1.20;;
15603;SDS011;7902;49.042;9.092;2023-04-24T05:37:12;10.57;;;1.50;;
15603;SDS011;7902;49.042;9.092;2023-04-24T05:39:38;9.97;;;1.53;;
15603;SDS011;7902;49.042;9.092;2023-04-24T05:42:04;12.73;;;1.47;;
15603;SDS011;7902;49.042;9.092;2023-04-24T05:44:30;9.13;;;1.30;;
15603;SDS011;7902;49.042;9.092;2023-04-24T05:46:56;10.80;;;1.80;;
15603;SDS011;7902;49.042;9.092;2023-04-24T05:49:22;12.60;;;1.50;;
15603;SDS011;7902;49.042;9.092;2023-04-24T05:51:48;14.37;;;1.63;;
15603;SDS011;7902;49.042;9.092;2023-04-24T05:54:14;9.47;;;1.70;;
15603;SDS011;7902;49.042;9.092;2023-04-24T05:56:40;10.70;;;1.87;;
15603;SDS011;7902;49.042;9.092;2023-04-24T05:59:06;11.30;;;1.70;;
15603;SDS011;7902;49.042;9.092;2023-04-24T06:01:33;13.23;;;1.70;;
15603;SDS011;7902;49.042;9.092;2023-04-24T06:03:58;9.57;;;1.63;;
15603;SDS011;7902;49.042;9.092;2023-04-24T06:06:25;10.83;;;1.73;;
15603;SDS011;7902;49.042;9.092;2023-04-24T06:08:51;12.37;;;1.90;;
15603;SDS011;7902;49.042;9.092;2023-04-24T06:11:17;11.77;;;1.87;;
15603;SDS011;7902;49.042;9.092;2023-04-24T06:13:43;10.07;;;1.80;;
15603;SDS011;7902;49.042;9.092;2023-04-24T06:16:09;9.47;;;1.60;;
15603;SDS011;7902;49.042;9.092;2023-04-24T06:18:35;10.10;;;1.80;;
15603;SDS011;7902;49.042;9.092;2023-04-24T06:21:01;8.77;;;1.50;;
15603;SDS011;7902;49.042;9.092;2023-04-24T06:23:27;20.63;;;1.80;;
15603;SDS011;7902;49.042;9.092;2023-04-24T06:25:53;10.80;;;1.90;;
15603;SDS011;7902;49.042;9.092;2023-04-24T06:28:19;10.70;;;1.60;;
15603;SDS011;7902;49.042;9.092;2023-04-24T06:30:45;9.57;;;1.60;;
15603;SDS011;7902;49.042;9.092;2023-04-24T06:33:11;14.70;;;1.80;;
15603;SDS011;7902;49.042;9.092;2023-04-24T06:35:37;9.17;;;1.37;;
15603;SDS011;7902;49.042;9.092;2023-04-24T06:38:06;11.00;;;1.50;;
15603;SDS011;7902;49.042;9.092;2023-04-24T06:40:32;14.97;;;1.87;;
15603;SDS011;7902;49.042;9.092;2023-04-24T06:42:58;10.60;;;1.53;;
15603;SDS011;7902;49.042;9.092;2023-04-24T06:45:25;11.37;;;2.07;;
15603;SDS011;7902;49.042;9.092;2023-04-24T06:47:51;11.33;;;1.70;;
15603;SDS011;7902;49.042;9.092;2023-04-24T06:50:17;11.80;;;1.47;;
15603;SDS011;7902;49.042;9.092;2023-04-24T06:52:43;11.93;;;1.70;;
15603;SDS011;7902;49.042;9.092;2023-04-24T06:55:09;15.63;;;1.50;;
15603;SDS011;7902;49.042;9.092;2023-04-24T06:57:36;12.70;;;1.70;;
15603;SDS011;7902;49.042;9.092;2023-04-24T07:00:03;9.70;;;1.20;;
15603;SDS011;7902;49.042;9.092;2023-04-24T07:02:30;12.07;;;1.80;;
15603;SDS011;7902;49.042;9.092;2023-04-24T07:04:56;17.57;;;1.73;;
15603;SDS011;7902;49.042;9.092;2023-04-24T07:07:22;10.47;;;1.20;;
15603;SDS011;7902;49.042;9.092;2023-04-24T07:09:49;13.43;;;1.50;;
15603;SDS011;7902;49.042;9.092;2023-04-24T07:12:16;10.70;;;1.60;;
15603;SDS011;7902;49.042;9.092;2023-04-24T07:14:42;12.47;;;1.60;;
15603;SDS011;7902;49.042;9.092;2023-04-24T07:17:08;11.27;;;1.43;;
15603;SDS011;7902;49.042;9.092;2023-04-24T07:19:34;11.13;;;1.40;;
15603;SDS011;7902;49.042;9.092;2023-04-24T07:22:03;9.63;;;1.20;;
15603;SDS011;7902;49.042;9.092;2023-04-24T07:24:29;10.40;;;1.63;;
15603;SDS011;7902;49.042;9.092;2023-04-24T07:26:57;12.47;;;1.17;;
15603;SDS011;7902;49.042;9.092;2023-04-24T07:29:24;10.27;;;1.43;;
15603;SDS011;7902;49.042;9.092;2023-04-24T07:31:50;9.77;;;1.20;;
15603;SDS011;7902;49.042;9.092;2023-04-24T07:34:16;11.80;;;1.60;;
15603;SDS011;7902;49.042;9.092;2023-04-24T07:36:42;10.47;;;1.10;;
15603;SDS011;7902;49.042;9.092;2023-04-24T07:39:08;11.33;;;1.20;;
15603;SDS011;7902;49.042;9.092;2023-04-24T07:41:33;10.73;;;1.13;;
15603;SDS011;7902;49.042;9.092;2023-04-24T07:43:59;10.30;;;1.20;;
15603;SDS011;7902;49.042;9.092;2023-04-24T07:46:25;10.77;;;1.50;;
15603;SDS011;7902;49.042;9.092;2023-04-24T07:48:55;14.37;;;1.17;;
15603;SDS011;7902;49.042;9.092;2023-04-24T07:51:21;9.60;;;0.90;;
15603;SDS011;7902;49.042;9.092;2023-04-24T07:53:47;9.87;;;1.00;;
15603;SDS011;7902;49.042;9.092;2023-04-24T07:56:13;10.20;;;1.20;;
15603;SDS011;7902;49.042;9.092;2023-04-24T07:58:39;9.93;;;0.83;;
15603;SDS011;7902;49.042;9.092;2023-04-24T08:01:05;12.20;;;1.47;;
15603;SDS011;7902;49.042;9.092;2023-04-24T08:03:31;10.73;;;1.60;;
15603;SDS011;7902;49.042;9.092;2023-04-24T08:05:57;11.50;;;1.50;;
15603;SDS011;7902;49.042;9.092;2023-04-24T08:08:23;12.47;;;0.97;;
15603;SDS011;7902;49.042;9.092;2023-04-24T08:10:49;16.73;;;1.47;;
15603;SDS011;7902;49.042;9.092;2023-04-24T08:13:15;17.47;;;1.23;;
15603;SDS011;7902;49.042;9.092;2023-04-24T08:15:41;12.43;;;1.03;;
15603;SDS011;7902;49.042;9.092;2023-04-24T08:18:07;9.43;;;0.93;;
15603;SDS011;7902;49.042;9.092;2023-04-24T08:20:33;11.03;;;1.13;;
15603;SDS011;7902;49.042;9.092;2023-04-24T08:22:59;11.27;;;0.73;;
15603;SDS011;7902;49.042;9.092;2023-04-24T08:25:25;11.80;;;1.03;;
15603;SDS011;7902;49.042;9.092;2023-04-24T08:27:51;10.33;;;0.90;;
15603;SDS011;7902;49.042;9.092;2023-04-24T08:30:17;9.87;;;0.80;;
15603;SDS011;7902;49.042;9.092;2023-04-24T08:32:43;10.70;;;1.10;;
15603;SDS011;7902;49.042;9.092;2023-04-24T08:35:09;9.90;;;0.90;;
15603;SDS011;7902;49.042;9.092;2023-04-24T08:37:35;9.90;;;0.70;;
15603;SDS011;7902;49.042;9.092;2023-04-24T08:40:03;10.43;;;1.00;;
15603;SDS011;7902;49.042;9.092;2023-04-24T08:42:34;10.67;;;1.00;;
15603;SDS011;7902;49.042;9.092;2023-04-24T08:45:02;12.77;;;1.07;;
15603;SDS011;7902;49.042;9.092;2023-04-24T08:47:28;10.90;;;0.80;;
15603;SDS011;7902;49.042;9.092;2023-04-24T08:49:54;11.70;;;1.20;;
15603;SDS011;7902;49.042;9.092;2023-04-24T08:52:21;13.10;;;1.53;;
15603;SDS011;7902;49.042;9.092;2023-04-24T08:54:47;12.40;;;2.07;;
15603;SDS011;7902;49.042;9.092;2023-04-24T08:57:14;10.03;;;1.00;;
15603;SDS011;7902;49.042;9.092;2023-04-24T08:59:40;10.43;;;1.20;;
15603;SDS011;7902;49.042;9.092;2023-04-24T09:02:10;12.50;;;1.30;;
15603;SDS011;7902;49.042;9.092;2023-04-24T09:04:37;13.60;;;1.00;;
15603;SDS011;7902;49.042;9.092;2023-04-24T09:07:03;10.00;;;0.97;;
15603;SDS011;7902;49.042;9.092;2023-04-24T09:09:31;13.00;;;1.07;;
15603;SDS011;7902;49.042;9.092;2023-04-24T09:11:58;9.93;;;0.90;;
15603;SDS011;7902;49.042;9.092;2023-04-24T09:14:24;9.83;;;0.80;;
15603;SDS011;7902;49.042;9.092;2023-04-24T09:16:51;9.60;;;0.70;;
15603;SDS011;7902;49.042;9.092;2023-04-24T09:19:17;12.30;;;1.10;;
15603;SDS011;7902;49.042;9.092;2023-04-24T09:21:45;11.00;;;1.50;;
15603;SDS011;7902;49.042;9.092;2023-04-24T09:24:16;12.80;;;0.80;;
15603;SDS011;7902;49.042;9.092;2023-04-24T09:26:48;14.07;;;0.83;;
15603;SDS011;7902;49.042;9.092;2023-04-24T09:29:15;15.20;;;1.10;;
15603;SDS011;7902;49.042;9.092;2023-04-24T09:31:42;10.50;;;0.80;;
15603;SDS011;7902;49.042;9.092;2023-04-24T09:34:08;14.80;;;1.10;;
15603;SDS011;7902;49.042;9.092;2023-04-24T09:36:35;17.77;;;1.50;;
15603;SDS011;7902;49.042;9.092;2023-04-24T09:39:06;11.20;;;1.17;;
15603;SDS011;7902;49.042;9.092;2023-04-24T09:41:43;11.43;;;1.60;;
15603;SDS011;7902;49.042;9.092;2023-04-24T09:46:43;13.40;;;1.37;;
15603;SDS011;7902;49.042;9.092;2023-04-24T09:49:14;12.40;;;1.10;;
15603;SDS011;7902;49.042;9.092;2023-04-24T09:51:41;10.43;;;1.10;;
15603;SDS011;7902;49.042;9.092;2023-04-24T09:54:15;14.73;;;1.43;;
15603;SDS011;7902;49.042;9.092;2023-04-24T09:56:50;10.53;;;1.10;;
15603;SDS011;7902;49.042;9.092;2023-04-24T09:59:17;10.57;;;1.20;;
15603;SDS011;7902;49.042;9.092;2023-04-24T10:01:45;11.00;;;1.30;;
15603;SDS011;7902;49.042;9.092;2023-04-24T10:04:17;10.50;;;1.00;;
15603;SDS011;7902;49.042;9.092;2023-04-24T10:06:45;13.23;;;1.20;;
15603;SDS011;7902;49.042;9.092;2023-04-24T10:09:12;11.03;;;1.00;;
15603;SDS011;7902;49.042;9.092;2023-04-24T10:11:47;10.73;;;1.00;;
15603;SDS011;7902;49.042;9.092;2023-04-24T10:14:15;10.80;;;1.03;;
15603;SDS011;7902;49.042;9.092;2023-04-24T10:16:43;10.90;;;1.20;;
15603;SDS011;7902;49.042;9.092;2023-04-24T10:19:10;12.43;;;1.33;;
15603;SDS011;7902;49.042;9.092;2023-04-24T10:21:37;11.27;;;1.30;;
15603;SDS011;7902;49.042;9.092;2023-04-24T10:24:10;12.73;;;1.20;;
15603;SDS011;7902;49.042;9.092;2023-04-24T10:26:38;13.50;;;1.37;;
15603;SDS011;7902;49.042;9.092;2023-04-24T10:29:04;11.67;;;1.37;;
15603;SDS011;7902;49.042;9.092;2023-04-24T10:31:35;17.83;;;1.83;;
15603;SDS011;7902;49.042;9.092;2023-04-24T10:34:06;11.50;;;1.03;;
15603;SDS011;7902;49.042;9.092;2023-04-24T10:36:34;11.07;;;1.40;;
15603;SDS011;7902;49.042;9.092;2023-04-24T10:39:02;14.03;;;1.50;;
15603;SDS011;7902;49.042;9.092;2023-04-24T10:41:32;24.23;;;1.70;;
15603;SDS011;7902;49.042;9.092;2023-04-24T10:46:33;11.57;;;1.40;;
15603;SDS011;7902;49.042;9.092;2023-04-24T10:49:03;12.77;;;1.53;;
15603;SDS011;7902;49.042;9.092;2023-04-24T10:51:48;11.60;;;1.33;;
15603;SDS011;7902;49.042;9.092;2023-04-24T10:59:43;16.60;;;1.87;;
15603;SDS011;7902;49.042;9.092;2023-04-24T11:02:10;11.40;;;1.20;;
15603;SDS011;7902;49.042;9.092;2023-04-24T11:04:36;12.43;;;1.97;;
15603;SDS011;7902;49.042;9.092;2023-04-24T11:07:02;12.83;;;2.40;;
15603;SDS011;7902;49.042;9.092;2023-04-24T11:09:32;14.07;;;1.17;;
15603;SDS011;7902;49.042;9.092;2023-04-24T11:12:05;10.83;;;1.00;;
15603;SDS011;7902;49.042;9.092;2023-04-24T11:17:32;11.40;;;1.53;;
15603;SDS011;7902;49.042;9.092;2023-04-24T11:20:04;11.23;;;1.23;;
15603;SDS011;7902;49.042;9.092;2023-04-24T11:22:35;11.63;;;1.20;;
15603;SDS011;7902;49.042;9.092;2023-04-24T11:25:02;17.03;;;1.73;;
15603;SDS011;7902;49.042;9.092;2023-04-24T11:27:30;13.53;;;1.67;;
15603;SDS011;7902;49.042;9.092;2023-04-24T11:29:59;11.00;;;1.47;;
15603;SDS011;7902;49.042;9.092;2023-04-24T11:32:30;13.80;;;1.57;;
15603;SDS011;7902;49.042;9.092;2023-04-24T11:35:04;10.60;;;1.27;;
15603;SDS011;7902;49.042;9.092;2023-04-24T11:37:41;13.77;;;1.77;;
15603;SDS011;7902;49.042;9.092;2023-04-24T11:40:10;11.67;;;1.57;;
15603;SDS011;7902;49.042;9.092;2023-04-24T11:42:38;13.73;;;1.53;;
15603;SDS011;7902;49.042;9.092;2023-04-24T11:45:09;12.27;;;1.80;;
15603;SDS011;7902;49.042;9.092;2023-04-24T11:47:36;12.83;;;1.43;;
15603;SDS011;7902;49.042;9.092;2023-04-24T11:50:03;14.27;;;1.80;;
15603;SDS011;7902;49.042;9.092;2023-04-24T11:52:30;18.13;;;1.40;;
15603;SDS011;7902;49.042;9.092;2023-04-24T11:54:57;11.10;;;1.20;;
15603;SDS011;7902;49.042;9.092;2023-04-24T11:57:24;12.33;;;1.83;;
15603;SDS011;7902;49.042;9.092;2023-04-24T11:59:53;12.00;;;1.53;;
15603;SDS011;7902;49.042;9.092;2023-04-24T12:02:20;14.63;;;1.73;;
15603;SDS011;7902;49.042;9.092;2023-04-24T12:04:49;11.00;;;1.40;;
15603;SDS011;7902;49.042;9.092;2023-04-24T12:07:16;13.63;;;1.70;;
15603;SDS011;7902;49.042;9.092;2023-04-24T12:12:08;10.90;;;1.10;;
15603;SDS011;7902;49.042;9.092;2023-04-24T12:14:45;11.40;;;1.50;;
15603;SDS011;7902;49.042;9.092;2023-04-24T12:17:15;11.50;;;1.73;;
15603;SDS011;7902;49.042;9.092;2023-04-24T12:19:45;11.70;;;1.70;;
15603;SDS011;7902;49.042;9.092;2023-04-24T12:22:13;12.87;;;1.60;;
15603;SDS011;7902;49.042;9.092;2023-04-24T12:27:26;11.83;;;1.63;;
15603;SDS011;7902;49.042;9.092;2023-04-24T12:29:58;11.87;;;1.70;;
15603;SDS011;7902;49.042;9.092;2023-04-24T12:32:25;15.53;;;2.10;;
15603;SDS011;7902;49.042;9.092;2023-04-24T12:34:51;12.63;;;1.93;;
15603;SDS011;7902;49.042;9.092;2023-04-24T12:37:18;11.67;;;1.60;;
15603;SDS011;7902;49.042;9.092;2023-04-24T12:39:59;14.43;;;1.90;;
15603;SDS011;7902;49.042;9.092;2023-04-24T12:42:32;13.83;;;1.80;;
15603;SDS011;7902;49.042;9.092;2023-04-24T12:45:03;12.63;;;1.83;;
15603;SDS011;7902;49.042;9.092;2023-04-24T12:47:32;12.27;;;1.70;;
15603;SDS011;7902;49.042;9.092;2023-04-24T12:49:59;11.37;;;1.97;;
15603;SDS011;7902;49.042;9.092;2023-04-24T12:52:25;11.07;;;1.67;;
15603;SDS011;7902;49.042;9.092;2023-04-24T12:54:53;13.33;;;1.53;;
15603;SDS011;7902;49.042;9.092;2023-04-24T12:57:20;11.47;;;1.77;;
15603;SDS011;7902;49.042;9.092;2023-04-24T12:59:47;12.00;;;1.60;;
15603;SDS011;7902;49.042;9.092;2023-04-24T13:02:13;16.30;;;1.57;;
15603;SDS011;7902;49.042;9.092;2023-04-24T13:04:39;13.23;;;1.70;;
15603;SDS011;7902;49.042;9.092;2023-04-24T13:07:05;16.07;;;1.60;;
15603;SDS011;7902;49.042;9.092;2023-04-24T13:09:31;15.87;;;1.97;;
15603;SDS011;7902;49.042;9.092;2023-04-24T13:12:00;13.67;;;1.70;;
15603;SDS011;7902;49.042;9.092;2023-04-24T13:14:26;12.63;;;1.30;;
15603;SDS011;7902;49.042;9.092;2023-04-24T13:16:52;12.77;;;1.60;;
15603;SDS011;7902;49.042;9.092;2023-04-24T13:19:18;13.03;;;1.70;;
15603;SDS011;7902;49.042;9.092;2023-04-24T13:21:44;15.53;;;2.43;;
15603;SDS011;7902;49.042;9.092;2023-04-24T13:24:10;13.80;;;1.90;;
15603;SDS011;7902;49.042;9.092;2023-04-24T13:26:36;12.20;;;1.67;;
15603;SDS011;7902;49.042;9.092;2023-04-24T13:29:01;12.20;;;1.47;;
15603;SDS011;7902;49.042;9.092;2023-04-24T13:31:28;17.13;;;1.73;;
15603;SDS011;7902;49.042;9.092;2023-04-24T13:33:54;13.60;;;1.63;;
15603;SDS011;7902;49.042;9.092;2023-04-24T13:36:20;12.20;;;1.73;;
15603;SDS011;7902;49.042;9.092;2023-04-24T13:38:46;15.83;;;2.03;;
15603;SDS011;7902;49.042;9.092;2023-04-24T13:41:12;13.60;;;1.80;;
15603;SDS011;7902;49.042;9.092;2023-04-24T13:43:38;32.37;;;2.00;;
15603;SDS011;7902;49.042;9.092;2023-04-24T13:46:04;16.10;;;1.97;;
15603;SDS011;7902;49.042;9.092;2023-04-24T13:48:29;14.30;;;1.83;;
15603;SDS011;7902;49.042;9.092;2023-04-24T13:50:55;21.17;;;1.83;;
15603;SDS011;7902;49.042;9.092;2023-04-24T13:53:21;16.17;;;1.77;;
15603;SDS011;7902;49.042;9.092;2023-04-24T13:55:47;13.53;;;1.67;;
15603;SDS011;7902;49.042;9.092;2023-04-24T13:58:13;12.77;;;1.80;;
15603;SDS011;7902;49.042;9.092;2023-04-24T14:00:39;14.57;;;1.73;;
15603;SDS011;7902;49.042;9.092;2023-04-24T14:03:05;12.20;;;1.30;;
15603;SDS011;7902;49.042;9.092;2023-04-24T14:05:31;12.63;;;1.80;;
15603;SDS011;7902;49.042;9.092;2023-04-24T14:07:57;16.17;;;2.60;;
15603;SDS011;7902;49.042;9.092;2023-04-24T14:10:23;22.40;;;3.03;;
15603;SDS011;7902;49.042;9.092;2023-04-24T14:12:49;14.70;;;1.80;;
15603;SDS011;7902;49.042;9.092;2023-04-24T14:15:16;12.50;;;1.40;;
15603;SDS011;7902;49.042;9.092;2023-04-24T14:17:42;14.83;;;1.77;;
15603;SDS011;7902;49.042;9.092;2023-04-24T14:20:08;19.33;;;1.80;;
15603;SDS011;7902;49.042;9.092;2023-04-24T14:22:34;13.60;;;1.70;;
15603;SDS011;7902;49.042;9.092;2023-04-24T14:25:00;13.60;;;1.90;;
15603;SDS011;7902;49.042;9.092;2023-04-24T14:27:26;12.43;;;1.53;;
15603;SDS011;7902;49.042;9.092;2023-04-24T14:29:52;14.87;;;1.60;;
15603;SDS011;7902;49.042;9.092;2023-04-24T14:32:18;12.30;;;1.57;;
15603;SDS011;7902;49.042;9.092;2023-04-24T14:34:44;13.40;;;1.80;;
15603;SDS011;7902;49.042;9.092;2023-04-24T14:37:10;13.50;;;2.07;;
15603;SDS011;7902;49.042;9.092;2023-04-24T14:39:36;12.13;;;1.50;;
15603;SDS011;7902;49.042;9.092;2023-04-24T14:42:01;13.33;;;2.00;;
15603;SDS011;7902;49.042;9.092;2023-04-24T14:44:27;16.03;;;1.90;;
15603;SDS011;7902;49.042;9.092;2023-04-24T14:46:53;13.53;;;1.90;;
15603;SDS011;7902;49.042;9.092;2023-04-24T14:49:19;12.10;;;1.63;;
15603;SDS011;7902;49.042;9.092;2023-04-24T14:51:46;12.90;;;1.80;;
15603;SDS011;7902;49.042;9.092;2023-04-24T14:54:11;14.87;;;2.20;;
15603;SDS011;7902;49.042;9.092;2023-04-24T14:56:37;14.83;;;2.33;;
15603;SDS011;7902;49.042;9.092;2023-04-24T14:59:06;13.50;;;1.90;;
15603;SDS011;7902;49.042;9.092;2023-04-24T15:01:32;13.07;;;2.00;;
15603;SDS011;7902;49.042;9.092;2023-04-24T15:03:58;13.43;;;1.60;;
15603;SDS011;7902;49.042;9.092;2023-04-24T15:06:24;13.43;;;1.73;;